Road Town, British Virgin Islands

3:07 AM AST on December 08, 2016 (GMT -0400)
Beef I International | | Change Station

Elev 13 ft 18.44 °N, 64.54 °W | Updated 6 hours ago

Partly Cloudy
Partly Cloudy
79 °F
Feels Like 79 °F
N
6
Wind Variable Wind from ENE

Today
High -- | Low -- °F
--% Chance of Precip.
Yesterday
High -- | Low -- °F
Precip. -- in
Pressure 30.06 in
Visibility 6.2 miles
Clouds Few 2100 ft
Dew Point 73 °F
Humidity 83%
Rainfall 0.00 in
Snow Depth Not available.
6:38 AM 5:42 PM
First Quarter, 60% visible
METAR TUPJ 080100Z 07005KT 9999 FEW021 26/23 Q1018 RMK A3006
Pressure 30.06 in
Visibility 6.2 miles
Clouds Few 2100 ft
Dew Point 73 °F
Humidity 83%
Rainfall 0.00 in
Snow Depth Not available.
6:38 AM 5:42 PM
First Quarter, 60% visible
METAR TUPJ 080100Z 07005KT 9999 FEW021 26/23 Q1018 RMK A3006

10-Day Weather Forecast

No radar image for this location.
×

Almanac

Astronomy

Dec. 08, 2016 Rise Set
Actual Time
Civil Twilight
Nautical Twilight
Astronomical Twilight
Moon
Length of Visible Light
Length of Day
Tomorrow will be .
, % of the Moon is Illuminated

Today's Extremes

Country Highs Country Lows

Community

WunderPhotos

Upload Photos

1,956,259 photos uploaded!

WunderBlog® & News

Nearby

Air Quality

  Air Quality AQ Index Pollutant
Not available.

Snow Depth

Station Depth Elevation

Earthquake Activity

City Distance Mag. Time & Date
Minimum magnitude displayed is 2.5.

Coastal Water Temperatures

Place Temperature

Stations

Nearby Weather Stations

Station Location Temp. Windchill Dew Point Humidity Wind Precip. Elev Updated Type